Search for airport 
image banner adimage banner adimage banner ad
image banner ad

PA01 - Merrys Pymatuning

Located in Linesville, United States

ICAO - PA01, IATA -

Data provided by Airmate  

General information

Coordinates: N41°40'30" W80°26'4"
Elevation is 1203 feet MSL.
Magnetic variation is -08° East
View others Airports in Pennsylvania

Operational data

Special qualification required
Current time UTC:
Current local time:
Weather at : KGKJ - Port Meadville ( 19 km )
METAR: KGKJ 071316Z AUTO 33003KT 2 1/2SM -RA BR SCT015 OVC023 04/03 A2991 RMK AO2 P0004 T00390028
View NOTAMs / SUP AIP / TFR affecting this airport [VIEW]
Communications frequencies: [VIEW]

Runways:

RWY identifierQFULength (ft)Width (ft)SurfaceLDA (ft)
041815120GRASS
221815120GRASS

Airport contact information

Address: Linesville United States

Satellite view of PA01